Hlavní strana
METAR-TAF:

METAR-TAF

Letiště :

Letiště Larnaka

Larnaka, Kypr

zeměpisná šířka: 34-53N, zeměpisná délka: 033-38E, výška: 2 m

Aktuální stav počasí

Zpráva byla vytvořena před 42 minutami, v 22:00 UTC
Severozápadní vítr 5 kt
Teplota 13°C
Vlhkost vzduchu 82%
Tlak 1018 hPa
Viditelnost 10 km a více
Žádná oblačnost pod 1500 m, nevyskytují se cumulonimby.

METAR: LCLK 222200Z 31005KT CAVOK 13/10 Q1018 NOSIG

Čas: 00:42 (22:42 UTC)

Předpověď počasí

Zpráva byla vytvořena před 5 hodinami a 12 minutami, v 17:30 UTC
Předpověď platná od 22 v 18 UTC do 23 v 18 UTC
Severoseverozápadní vítr 7 kt
Viditelnost 10 km a více
Skoro jasno ve výšce 3000 ft
Změna
od 23 v 07 UTC do 23 v 10 UTC
Východní vítr 10 kt

TAF: LCLK 221730Z 2218/2318 34007KT 9999 FEW030 BECMG 2307/2310 08010KT

Stav a předpovědi počasí z více než 4 000 letišť (zprávy METAR a TAF).

Červené a žluté tečky na mapě představují dostupné meteorologické stanice.

Když kurzor umístíte na tečku, zobrazí se název stanice.

Pak kliknutím zobrazíte stav a předpověď počasí.

Chcete-li změnit mapu, kliknutím na zelené tlačítko se znaménkem +mapu přiblížíte, kliknutím na zelené tlačítko se znaménkem – mapu oddálíte a kliknutím na zelené šipky přejdete na sousední mapy.


METAR-TAF: